Terminal Aerodrome Forecast
Issued by NWS Pocatello, ID

Home | Current Version | Previous Version | Text Only | Print | Product List | Glossary On
Versions: 1 2 3 4 5 6 7 8 9 10 11 12 13 14 15 16 17 18 19 20 21 22 23 24 25 26 27
000
FTUS45 KPIH 290039 AAA
TAFPIH
TAF AMD
KPIH 290039Z 2901/2924 31007KT P6SM -TSRA BKN040CB BKN080
     FM290200 31007KT P6SM VCTS SCT050CB BKN100
     FM290400 VRB05KT P6SM SCT070 SCT120
     FM291900 26009KT P6SM FEW120 SCT250=

USA.gov is the U.S. government's official web portal to all federal, state and local government web resources and services.